sensor_id;sensor_type;location;lat;lon;timestamp;temperature;humidity
26049;DHT22;13822;51.568;5.086;2023-02-11T01:53:07;6.70;99.90
26049;DHT22;13822;51.568;5.086;2023-02-11T01:58:32;6.70;99.90
26049;DHT22;13822;51.568;5.086;2023-02-11T02:03:38;6.70;99.90
26049;DHT22;13822;51.568;5.086;2023-02-11T02:09:04;6.70;99.90
26049;DHT22;13822;51.568;5.086;2023-02-11T02:14:09;6.70;99.90
26049;DHT22;13822;51.568;5.086;2023-02-11T02:24:47;6.70;99.90
26049;DHT22;13822;51.568;5.086;2023-02-11T02:35:24;6.70;99.90
26049;DHT22;13822;51.568;5.086;2023-02-11T02:40:45;6.70;99.90
26049;DHT22;13822;51.568;5.086;2023-02-11T02:45:53;6.60;99.90
26049;DHT22;13822;51.568;5.086;2023-02-11T03:01:45;6.70;99.90
26049;DHT22;13822;51.568;5.086;2023-02-11T03:07:01;6.70;99.90
26049;DHT22;13822;51.568;5.086;2023-02-11T03:12:11;6.70;99.90
26049;DHT22;13822;51.568;5.086;2023-02-11T03:17:14;6.70;99.90
26049;DHT22;13822;51.568;5.086;2023-02-11T03:22:19;6.70;99.90
26049;DHT22;13822;51.568;5.086;2023-02-11T03:27:38;6.70;99.90
26049;DHT22;13822;51.568;5.086;2023-02-11T03:32:49;6.70;99.90
26049;DHT22;13822;51.568;5.086;2023-02-11T03:38:08;6.70;99.90
26049;DHT22;13822;51.568;5.086;2023-02-11T03:43:32;6.70;99.90
26049;DHT22;13822;51.568;5.086;2023-02-11T03:48:47;6.60;99.90
26049;DHT22;13822;51.568;5.086;2023-02-11T03:53:54;6.70;99.90
26049;DHT22;13822;51.568;5.086;2023-02-11T03:59:01;6.70;99.90
26049;DHT22;13822;51.568;5.086;2023-02-11T04:04:05;6.70;99.90
26049;DHT22;13822;51.568;5.086;2023-02-11T04:09:10;6.70;99.90
26049;DHT22;13822;51.568;5.086;2023-02-11T04:14:34;6.70;99.90
26049;DHT22;13822;51.568;5.086;2023-02-11T04:19:38;6.70;99.90
26049;DHT22;13822;51.568;5.086;2023-02-11T04:24:42;6.70;99.90
26049;DHT22;13822;51.568;5.086;2023-02-11T04:29:44;6.70;99.90
26049;DHT22;13822;51.568;5.086;2023-02-11T04:34:49;6.70;99.90
26049;DHT22;13822;51.568;5.086;2023-02-11T04:39:54;6.70;99.90
26049;DHT22;13822;51.568;5.086;2023-02-11T04:44:57;6.70;99.90
26049;DHT22;13822;51.568;5.086;2023-02-11T04:50:11;6.60;99.90
26049;DHT22;13822;51.568;5.086;2023-02-11T04:55:18;6.60;99.90
26049;DHT22;13822;51.568;5.086;2023-02-11T05:00:20;6.60;99.90
26049;DHT22;13822;51.568;5.086;2023-02-11T05:05:26;6.60;99.90
26049;DHT22;13822;51.568;5.086;2023-02-11T05:10:42;6.60;99.90
26049;DHT22;13822;51.568;5.086;2023-02-11T05:15:52;6.60;99.90
26049;DHT22;13822;51.568;5.086;2023-02-11T05:20:54;6.60;99.90
26049;DHT22;13822;51.568;5.086;2023-02-11T05:26:05;6.60;99.90
26049;DHT22;13822;51.568;5.086;2023-02-11T05:31:15;6.60;99.90
26049;DHT22;13822;51.568;5.086;2023-02-11T05:36:22;6.60;99.90
26049;DHT22;13822;51.568;5.086;2023-02-11T05:41:28;6.60;99.90
26049;DHT22;13822;51.568;5.086;2023-02-11T05:46:39;6.60;99.90
26049;DHT22;13822;51.568;5.086;2023-02-11T05:51:45;6.60;99.90
26049;DHT22;13822;51.568;5.086;2023-02-11T05:56:48;6.60;99.90
26049;DHT22;13822;51.568;5.086;2023-02-11T06:02:04;6.60;99.90
26049;DHT22;13822;51.568;5.086;2023-02-11T06:07:10;6.60;99.90
26049;DHT22;13822;51.568;5.086;2023-02-11T06:12:24;6.60;99.90
26049;DHT22;13822;51.568;5.086;2023-02-11T06:17:35;6.60;99.90
26049;DHT22;13822;51.568;5.086;2023-02-11T06:22:42;6.70;99.90
26049;DHT22;13822;51.568;5.086;2023-02-11T06:27:44;6.60;99.90
26049;DHT22;13822;51.568;5.086;2023-02-11T06:32:51;6.60;99.90
26049;DHT22;13822;51.568;5.086;2023-02-11T06:38:00;6.70;99.90
26049;DHT22;13822;51.568;5.086;2023-02-11T06:43:09;6.70;99.90
26049;DHT22;13822;51.568;5.086;2023-02-11T06:48:13;6.70;99.90
26049;DHT22;13822;51.568;5.086;2023-02-11T06:53:17;6.70;99.90
26049;DHT22;13822;51.568;5.086;2023-02-11T06:58:20;6.70;99.90
26049;DHT22;13822;51.568;5.086;2023-02-11T07:03:25;6.70;99.90
26049;DHT22;13822;51.568;5.086;2023-02-11T07:08:27;6.70;99.90
26049;DHT22;13822;51.568;5.086;2023-02-11T07:13:31;6.80;99.90
26049;DHT22;13822;51.568;5.086;2023-02-11T07:18:35;6.80;99.90
26049;DHT22;13822;51.568;5.086;2023-02-11T07:24:12;6.80;99.90
26049;DHT22;13822;51.568;5.086;2023-02-11T07:29:29;6.80;99.90
26049;DHT22;13822;51.568;5.086;2023-02-11T07:34:40;6.90;99.90
26049;DHT22;13822;51.568;5.086;2023-02-11T07:39:48;6.90;99.90
26049;DHT22;13822;51.568;5.086;2023-02-11T07:44:59;6.90;99.90
26049;DHT22;13822;51.568;5.086;2023-02-11T07:50:02;7.00;99.90
26049;DHT22;13822;51.568;5.086;2023-02-11T07:55:09;7.00;99.90
26049;DHT22;13822;51.568;5.086;2023-02-11T08:00:13;7.00;99.90
26049;DHT22;13822;51.568;5.086;2023-02-11T08:05:23;7.00;99.90
26049;DHT22;13822;51.568;5.086;2023-02-11T08:10:33;7.10;99.90
26049;DHT22;13822;51.568;5.086;2023-02-11T08:15:50;7.10;99.90
26049;DHT22;13822;51.568;5.086;2023-02-11T08:21:07;7.10;99.90
26049;DHT22;13822;51.568;5.086;2023-02-11T08:26:18;7.10;99.90
26049;DHT22;13822;51.568;5.086;2023-02-11T08:31:26;7.20;99.90
26049;DHT22;13822;51.568;5.086;2023-02-11T08:36:36;7.20;99.90
26049;DHT22;13822;51.568;5.086;2023-02-11T08:41:50;7.30;99.90
26049;DHT22;13822;51.568;5.086;2023-02-11T08:46:54;7.30;99.90
26049;DHT22;13822;51.568;5.086;2023-02-11T08:52:06;7.40;99.90
26049;DHT22;13822;51.568;5.086;2023-02-11T08:57:15;7.50;99.90
26049;DHT22;13822;51.568;5.086;2023-02-11T09:02:23;7.50;99.90
26049;DHT22;13822;51.568;5.086;2023-02-11T09:07:39;7.60;99.90
26049;DHT22;13822;51.568;5.086;2023-02-11T09:12:43;7.60;99.90
26049;DHT22;13822;51.568;5.086;2023-02-11T09:17:46;7.70;99.90
26049;DHT22;13822;51.568;5.086;2023-02-11T09:23:03;7.70;99.90
26049;DHT22;13822;51.568;5.086;2023-02-11T09:28:11;7.80;99.90
26049;DHT22;13822;51.568;5.086;2023-02-11T09:33:21;7.80;99.90
26049;DHT22;13822;51.568;5.086;2023-02-11T09:38:27;7.90;99.90
26049;DHT22;13822;51.568;5.086;2023-02-11T09:43:32;7.90;99.90
26049;DHT22;13822;51.568;5.086;2023-02-11T09:48:49;7.90;99.90
26049;DHT22;13822;51.568;5.086;2023-02-11T09:53:56;7.90;99.90
26049;DHT22;13822;51.568;5.086;2023-02-11T09:59:09;8.00;99.90
26049;DHT22;13822;51.568;5.086;2023-02-11T10:15:12;8.20;99.90
26049;DHT22;13822;51.568;5.086;2023-02-11T10:25:40;8.20;99.90
26049;DHT22;13822;51.568;5.086;2023-02-11T10:36:43;8.30;99.90
26049;DHT22;13822;51.568;5.086;2023-02-11T10:41:55;8.40;99.90
26049;DHT22;13822;51.568;5.086;2023-02-11T10:52:34;8.40;99.90
26049;DHT22;13822;51.568;5.086;2023-02-11T10:57:41;8.50;99.90
26049;DHT22;13822;51.568;5.086;2023-02-11T11:02:58;8.50;99.90
26049;DHT22;13822;51.568;5.086;2023-02-11T11:08:06;8.50;99.90
26049;DHT22;13822;51.568;5.086;2023-02-11T11:18:32;8.60;99.90
26049;DHT22;13822;51.568;5.086;2023-02-11T11:23:46;8.60;99.90
26049;DHT22;13822;51.568;5.086;2023-02-11T11:29:05;8.70;99.90
26049;DHT22;13822;51.568;5.086;2023-02-11T11:34:26;8.70;99.90
26049;DHT22;13822;51.568;5.086;2023-02-11T11:39:34;8.80;99.90
26049;DHT22;13822;51.568;5.086;2023-02-11T11:44:38;8.90;99.90
26049;DHT22;13822;51.568;5.086;2023-02-11T11:49:46;8.90;99.90
26049;DHT22;13822;51.568;5.086;2023-02-11T11:54:54;8.90;99.90
26049;DHT22;13822;51.568;5.086;2023-02-11T12:00:02;8.90;99.90
26049;DHT22;13822;51.568;5.086;2023-02-11T12:21:37;9.10;99.90
26049;DHT22;13822;51.568;5.086;2023-02-11T12:26:55;9.10;99.90
26049;DHT22;13822;51.568;5.086;2023-02-11T12:37:39;9.20;99.90
26049;DHT22;13822;51.568;5.086;2023-02-11T12:48:21;9.30;99.90
26049;DHT22;13822;51.568;5.086;2023-02-11T12:53:31;9.30;99.90
26049;DHT22;13822;51.568;5.086;2023-02-11T12:58:42;9.40;99.90
26049;DHT22;13822;51.568;5.086;2023-02-11T13:03:56;9.40;99.90
26049;DHT22;13822;51.568;5.086;2023-02-11T13:09:18;9.60;99.90
26049;DHT22;13822;51.568;5.086;2023-02-11T13:19:45;9.80;99.90
26049;DHT22;13822;51.568;5.086;2023-02-11T13:24:58;9.90;99.90
26049;DHT22;13822;51.568;5.086;2023-02-11T13:35:33;9.90;99.90
26049;DHT22;13822;51.568;5.086;2023-02-11T13:41:14;9.90;99.90
26049;DHT22;13822;51.568;5.086;2023-02-11T13:46:21;10.00;99.90
26049;DHT22;13822;51.568;5.086;2023-02-11T13:51:35;10.00;99.90
26049;DHT22;13822;51.568;5.086;2023-02-11T13:57:13;10.00;99.90
26049;DHT22;13822;51.568;5.086;2023-02-11T14:14:02;10.10;99.90
26049;DHT22;13822;51.568;5.086;2023-02-11T14:19:45;10.10;99.90
26049;DHT22;13822;51.568;5.086;2023-02-11T14:25:03;10.00;99.90
26049;DHT22;13822;51.568;5.086;2023-02-11T14:41:37;10.10;99.90
26049;DHT22;13822;51.568;5.086;2023-02-11T14:46:46;10.10;99.90
26049;DHT22;13822;51.568;5.086;2023-02-11T14:52:06;10.00;99.90
26049;DHT22;13822;51.568;5.086;2023-02-11T14:57:32;10.00;99.90
26049;DHT22;13822;51.568;5.086;2023-02-11T15:02:52;10.10;99.90
26049;DHT22;13822;51.568;5.086;2023-02-11T15:08:03;10.10;99.90
26049;DHT22;13822;51.568;5.086;2023-02-11T15:13:14;10.10;99.90
26049;DHT22;13822;51.568;5.086;2023-02-11T15:18:40;10.10;99.90
26049;DHT22;13822;51.568;5.086;2023-02-11T15:23:56;10.10;99.90
26049;DHT22;13822;51.568;5.086;2023-02-11T15:29:23;10.00;99.90
26049;DHT22;13822;51.568;5.086;2023-02-11T15:34:29;10.00;99.90
26049;DHT22;13822;51.568;5.086;2023-02-11T15:39:38;10.00;99.90
26049;DHT22;13822;51.568;5.086;2023-02-11T15:50:23;10.00;99.90
26049;DHT22;13822;51.568;5.086;2023-02-11T15:55:37;10.00;99.90
26049;DHT22;13822;51.568;5.086;2023-02-11T16:01:14;10.00;99.90
26049;DHT22;13822;51.568;5.086;2023-02-11T16:06:40;9.90;99.90
26049;DHT22;13822;51.568;5.086;2023-02-11T16:12:23;9.90;99.90
26049;DHT22;13822;51.568;5.086;2023-02-11T16:17:48;9.90;99.90
26049;DHT22;13822;51.568;5.086;2023-02-11T16:22:55;9.90;99.90
26049;DHT22;13822;51.568;5.086;2023-02-11T16:27:57;9.80;99.90
26049;DHT22;13822;51.568;5.086;2023-02-11T16:33:07;9.80;99.90
26049;DHT22;13822;51.568;5.086;2023-02-11T16:38:10;9.80;99.90
26049;DHT22;13822;51.568;5.086;2023-02-11T16:43:19;9.70;99.90
26049;DHT22;13822;51.568;5.086;2023-02-11T16:48:23;9.70;99.90
26049;DHT22;13822;51.568;5.086;2023-02-11T16:53:32;9.70;99.90
26049;DHT22;13822;51.568;5.086;2023-02-11T16:58:35;9.70;99.90
26049;DHT22;13822;51.568;5.086;2023-02-11T17:03:37;9.60;99.90
26049;DHT22;13822;51.568;5.086;2023-02-11T17:08:41;9.60;99.90
26049;DHT22;13822;51.568;5.086;2023-02-11T17:13:46;9.60;99.90
26049;DHT22;13822;51.568;5.086;2023-02-11T17:19:02;9.60;99.90
26049;DHT22;13822;51.568;5.086;2023-02-11T17:24:27;9.50;99.90
26049;DHT22;13822;51.568;5.086;2023-02-11T17:29:45;9.50;99.90
26049;DHT22;13822;51.568;5.086;2023-02-11T17:34:51;9.50;99.90
26049;DHT22;13822;51.568;5.086;2023-02-11T17:39:54;9.50;99.90
26049;DHT22;13822;51.568;5.086;2023-02-11T17:44:59;9.40;99.90
26049;DHT22;13822;51.568;5.086;2023-02-11T17:50:02;9.40;99.90
26049;DHT22;13822;51.568;5.086;2023-02-11T17:55:09;9.30;99.90
26049;DHT22;13822;51.568;5.086;2023-02-11T18:00:23;9.30;99.90
26049;DHT22;13822;51.568;5.086;2023-02-11T18:05:37;9.30;99.90
26049;DHT22;13822;51.568;5.086;2023-02-11T18:10:43;9.30;99.90
26049;DHT22;13822;51.568;5.086;2023-02-11T18:15:48;9.30;99.90
26049;DHT22;13822;51.568;5.086;2023-02-11T18:20:59;9.30;99.90
26049;DHT22;13822;51.568;5.086;2023-02-11T18:26:22;9.20;99.90
26049;DHT22;13822;51.568;5.086;2023-02-11T18:31:31;9.20;99.90
26049;DHT22;13822;51.568;5.086;2023-02-11T18:36:39;9.20;99.90
26049;DHT22;13822;51.568;5.086;2023-02-11T18:41:45;9.20;99.90
26049;DHT22;13822;51.568;5.086;2023-02-11T18:46:57;9.20;99.90
26049;DHT22;13822;51.568;5.086;2023-02-11T18:52:00;9.20;99.90
26049;DHT22;13822;51.568;5.086;2023-02-11T18:57:27;9.20;99.90
26049;DHT22;13822;51.568;5.086;2023-02-11T19:02:32;9.10;99.90
26049;DHT22;13822;51.568;5.086;2023-02-11T19:08:01;9.10;99.90
26049;DHT22;13822;51.568;5.086;2023-02-11T19:13:35;9.10;99.90
26049;DHT22;13822;51.568;5.086;2023-02-11T19:18:42;9.00;99.90
26049;DHT22;13822;51.568;5.086;2023-02-11T19:24:04;9.00;99.90
26049;DHT22;13822;51.568;5.086;2023-02-11T19:29:23;9.00;99.90
26049;DHT22;13822;51.568;5.086;2023-02-11T19:34:31;9.00;99.90
26049;DHT22;13822;51.568;5.086;2023-02-11T19:39:48;9.00;99.90
26049;DHT22;13822;51.568;5.086;2023-02-11T19:45:01;8.90;99.90
26049;DHT22;13822;51.568;5.086;2023-02-11T19:50:14;8.90;99.90
26049;DHT22;13822;51.568;5.086;2023-02-11T19:55:37;8.90;99.90
26049;DHT22;13822;51.568;5.086;2023-02-11T20:01:05;8.90;99.90
26049;DHT22;13822;51.568;5.086;2023-02-11T20:07:10;8.90;99.90
26049;DHT22;13822;51.568;5.086;2023-02-11T20:12:18;8.90;99.90
26049;DHT22;13822;51.568;5.086;2023-02-11T20:17:30;8.90;99.90
26049;DHT22;13822;51.568;5.086;2023-02-11T20:22:45;8.80;99.90
26049;DHT22;13822;51.568;5.086;2023-02-11T20:33:24;8.80;99.90
26049;DHT22;13822;51.568;5.086;2023-02-11T20:38:31;8.80;99.90
26049;DHT22;13822;51.568;5.086;2023-02-11T20:43:37;8.80;99.90
26049;DHT22;13822;51.568;5.086;2023-02-11T20:48:39;8.70;99.90
26049;DHT22;13822;51.568;5.086;2023-02-11T20:53:45;8.70;99.90
26049;DHT22;13822;51.568;5.086;2023-02-11T20:58:57;8.70;99.90
26049;DHT22;13822;51.568;5.086;2023-02-11T21:04:18;8.70;99.90
26049;DHT22;13822;51.568;5.086;2023-02-11T21:09:30;8.70;99.90
26049;DHT22;13822;51.568;5.086;2023-02-11T21:14:35;8.70;99.90
26049;DHT22;13822;51.568;5.086;2023-02-11T21:19:37;8.70;99.90
26049;DHT22;13822;51.568;5.086;2023-02-11T21:24:58;8.60;99.90
26049;DHT22;13822;51.568;5.086;2023-02-11T21:30:36;8.60;99.90
26049;DHT22;13822;51.568;5.086;2023-02-11T21:36:02;8.60;99.90
26049;DHT22;13822;51.568;5.086;2023-02-11T21:41:12;8.60;99.90
26049;DHT22;13822;51.568;5.086;2023-02-11T21:46:32;8.60;99.90
26049;DHT22;13822;51.568;5.086;2023-02-11T21:51:35;8.60;99.90
26049;DHT22;13822;51.568;5.086;2023-02-11T21:56:39;8.60;99.90
26049;DHT22;13822;51.568;5.086;2023-02-11T22:01:53;8.60;99.90
26049;DHT22;13822;51.568;5.086;2023-02-11T22:07:07;8.50;99.90
26049;DHT22;13822;51.568;5.086;2023-02-11T22:12:33;8.60;99.90
26049;DHT22;13822;51.568;5.086;2023-02-11T22:17:40;8.60;99.90
26049;DHT22;13822;51.568;5.086;2023-02-11T22:22:52;8.50;99.90
26049;DHT22;13822;51.568;5.086;2023-02-11T22:28:01;8.60;99.90
26049;DHT22;13822;51.568;5.086;2023-02-11T22:33:12;8.60;99.90
26049;DHT22;13822;51.568;5.086;2023-02-11T22:38:21;8.50;99.90
26049;DHT22;13822;51.568;5.086;2023-02-11T22:43:30;8.50;99.90
26049;DHT22;13822;51.568;5.086;2023-02-11T22:48:33;8.50;99.90
26049;DHT22;13822;51.568;5.086;2023-02-11T22:53:48;8.50;99.90
26049;DHT22;13822;51.568;5.086;2023-02-11T22:59:13;8.50;99.90
26049;DHT22;13822;51.568;5.086;2023-02-11T23:04:41;8.50;99.90
26049;DHT22;13822;51.568;5.086;2023-02-11T23:09:57;8.50;99.90
26049;DHT22;13822;51.568;5.086;2023-02-11T23:15:08;8.50;99.90
26049;DHT22;13822;51.568;5.086;2023-02-11T23:20:16;8.50;99.90
26049;DHT22;13822;51.568;5.086;2023-02-11T23:25:31;8.50;99.90
26049;DHT22;13822;51.568;5.086;2023-02-11T23:36:38;8.50;99.90
26049;DHT22;13822;51.568;5.086;2023-02-11T23:41:54;8.50;99.90
26049;DHT22;13822;51.568;5.086;2023-02-11T23:47:05;8.40;99.90
26049;DHT22;13822;51.568;5.086;2023-02-11T23:52:11;8.50;99.90
26049;DHT22;13822;51.568;5.086;2023-02-11T23:57:22;8.40;99.90
